Terminal Aerodrome Forecast
Issued by NWS Greer, SC

Current Version | Previous Version | Text Only | Print | Product List | Glossary On
Versions: 1 2 3 4 5 6 7 8 9 10 11 12 13 14 15 16 17 18 19 20 21 22 23 24 25 26 27 28 29 30 31 32 33
000
FTUS42 KGSP 040520
TAFAVL
TAF
KAVL 040520Z 0406/0506 00000KT P6SM OVC080
     FM040700 00000KT P6SM BKN070
     FM041200 21003KT P6SM SCT070
     FM041900 18006KT P6SM VCSH BKN050
     FM050200 00000KT P6SM BKN050=

USA.gov is the U.S. government's official web portal to all federal, state and local government web resources and services.